createdAt,value
2018-07-01T00:00:18.630Z,17.70
2018-07-01T00:02:46.889Z,17.80
2018-07-01T00:05:15.319Z,17.80
2018-07-01T00:07:43.632Z,17.80
2018-07-01T00:10:11.962Z,17.70
2018-07-01T00:12:40.295Z,17.60
2018-07-01T00:15:09.297Z,17.60
2018-07-01T00:17:37.949Z,17.70
2018-07-01T00:20:07.571Z,17.70
2018-07-01T00:22:36.140Z,17.60
2018-07-01T00:25:04.590Z,17.50
2018-07-01T00:27:33.061Z,17.40
2018-07-01T00:30:01.441Z,17.50
2018-07-01T00:32:29.753Z,17.50
2018-07-01T00:34:58.092Z,17.40
2018-07-01T00:37:26.412Z,17.40
2018-07-01T00:39:54.741Z,17.40
2018-07-01T00:42:23.066Z,17.20
2018-07-01T00:44:51.396Z,17.30
2018-07-01T00:47:19.709Z,17.20
2018-07-01T00:49:47.997Z,17.10
2018-07-01T00:52:16.344Z,17.20
2018-07-01T00:54:44.653Z,17.10
2018-07-01T00:57:13.025Z,16.90
2018-07-01T00:59:41.325Z,16.80
2018-07-01T01:02:09.658Z,16.80
2018-07-01T01:04:37.959Z,16.80
2018-07-01T01:07:06.333Z,16.60
2018-07-01T01:09:34.653Z,16.60
2018-07-01T01:12:02.989Z,16.40
2018-07-01T01:14:31.311Z,16.30
2018-07-01T01:19:27.724Z,16.50
2018-07-01T01:21:56.200Z,16.60
2018-07-01T01:24:24.512Z,16.70
2018-07-01T01:26:52.840Z,16.60
2018-07-01T01:29:21.177Z,16.40
2018-07-01T01:31:49.518Z,16.40
2018-07-01T01:34:17.925Z,16.40
2018-07-01T01:36:46.524Z,16.40
2018-07-01T01:39:19.576Z,16.40
2018-07-01T01:41:51.482Z,16.30
2018-07-01T01:44:28.808Z,16.30
2018-07-01T01:47:10.765Z,16.30
2018-07-01T01:49:44.276Z,16.40
2018-07-01T01:52:17.950Z,16.30
2018-07-01T01:54:51.409Z,16.30
2018-07-01T01:57:27.288Z,16.40
2018-07-01T01:59:59.728Z,16.20
2018-07-01T02:03:31.037Z,16.10
2018-07-01T02:06:07.713Z,16.00
2018-07-01T02:08:39.821Z,15.90
2018-07-01T02:11:08.202Z,15.80
2018-07-01T02:13:38.321Z,15.70
2018-07-01T02:16:14.117Z,15.80
2018-07-01T02:18:42.493Z,15.80
2018-07-01T02:21:10.837Z,15.70
2018-07-01T02:23:44.637Z,15.60
2018-07-01T02:26:12.990Z,15.70
2018-07-01T02:28:41.350Z,15.60
2018-07-01T02:31:09.673Z,15.60
2018-07-01T02:33:38.019Z,15.60
2018-07-01T02:36:06.636Z,15.50
2018-07-01T02:38:34.958Z,15.50
2018-07-01T02:41:03.301Z,15.50
2018-07-01T02:43:31.654Z,15.50
2018-07-01T02:45:59.978Z,15.40
2018-07-01T02:50:56.361Z,15.40
2018-07-01T02:53:24.718Z,15.40
2018-07-01T02:55:53.025Z,15.50
2018-07-01T02:58:21.360Z,15.40
2018-07-01T03:00:49.644Z,15.20
2018-07-01T03:03:17.948Z,15.10
2018-07-01T03:05:46.277Z,15.00
2018-07-01T03:08:14.600Z,15.00
2018-07-01T03:10:42.916Z,15.00
2018-07-01T03:13:11.234Z,15.00
2018-07-01T03:15:39.628Z,14.90
2018-07-01T03:18:07.989Z,15.10
2018-07-01T03:20:36.389Z,15.00
2018-07-01T03:23:04.741Z,15.00
2018-07-01T03:25:33.057Z,15.00
2018-07-01T03:28:01.381Z,15.00
2018-07-01T03:30:29.682Z,14.90
2018-07-01T03:32:58.032Z,14.80
2018-07-01T03:35:26.356Z,14.80
2018-07-01T03:37:54.671Z,14.80
2018-07-01T03:40:22.975Z,14.70
2018-07-01T03:42:51.329Z,14.70
2018-07-01T03:45:19.636Z,14.70
2018-07-01T03:47:47.966Z,14.70
2018-07-01T03:50:16.337Z,14.70
2018-07-01T03:52:44.677Z,14.60
2018-07-01T03:55:12.985Z,14.70
2018-07-01T03:57:41.390Z,14.70
2018-07-01T04:00:09.679Z,14.70
2018-07-01T04:02:38.112Z,14.70
2018-07-01T04:05:06.414Z,14.60
2018-07-01T04:07:34.746Z,14.50
2018-07-01T04:10:03.078Z,14.40
2018-07-01T04:12:31.393Z,14.60
2018-07-01T04:14:59.705Z,14.70
2018-07-01T04:17:28.002Z,14.80
2018-07-01T04:22:24.394Z,14.70
2018-07-01T04:24:52.743Z,14.70
2018-07-01T04:27:21.032Z,14.70
2018-07-01T04:29:49.352Z,14.70
2018-07-01T04:32:17.660Z,15.00
2018-07-01T04:34:45.989Z,14.90
2018-07-01T04:37:14.293Z,14.90
2018-07-01T04:39:42.621Z,14.90
2018-07-01T04:42:10.921Z,14.90
2018-07-01T04:44:39.297Z,15.00
2018-07-01T04:47:07.589Z,15.10
2018-07-01T04:49:35.929Z,15.20
2018-07-01T04:52:04.244Z,15.30
2018-07-01T04:54:32.580Z,15.40
2018-07-01T04:57:00.877Z,15.40
2018-07-01T04:59:29.187Z,15.40
2018-07-01T05:01:57.502Z,15.60
2018-07-01T05:04:25.840Z,15.60
2018-07-01T05:06:54.128Z,15.70
2018-07-01T05:09:22.436Z,15.60
2018-07-01T05:11:50.732Z,15.70
2018-07-01T05:14:19.049Z,15.80
2018-07-01T05:16:47.348Z,15.80
2018-07-01T05:21:44.368Z,15.90
2018-07-01T05:24:12.688Z,16.00
2018-07-01T05:26:40.999Z,16.20
2018-07-01T05:29:09.318Z,16.30
2018-07-01T05:31:37.642Z,16.50
2018-07-01T05:34:05.996Z,16.70
2018-07-01T05:36:34.324Z,17.00
2018-07-01T05:39:02.666Z,17.40
2018-07-01T05:41:31.034Z,17.90
2018-07-01T05:43:59.321Z,18.20
2018-07-01T05:46:27.652Z,18.50
2018-07-01T05:48:55.946Z,18.70
2018-07-01T05:51:24.281Z,18.50
2018-07-01T05:53:52.589Z,18.20
2018-07-01T05:56:20.903Z,17.90
2018-07-01T05:58:49.232Z,17.90
2018-07-01T06:01:17.557Z,18.40
2018-07-01T06:03:45.872Z,19.00
2018-07-01T06:06:14.289Z,19.50
2018-07-01T06:08:42.669Z,19.70
2018-07-01T06:11:10.932Z,19.70
2018-07-01T06:13:39.220Z,19.70
2018-07-01T06:16:07.556Z,20.00
2018-07-01T06:18:35.908Z,20.30
2018-07-01T06:21:04.241Z,20.40
2018-07-01T06:23:32.547Z,20.30
2018-07-01T06:26:00.869Z,20.50
2018-07-01T06:28:29.168Z,20.70
2018-07-01T06:30:57.501Z,21.00
2018-07-01T06:33:25.832Z,20.60
2018-07-01T06:35:54.153Z,20.80
2018-07-01T06:38:22.451Z,20.90
2018-07-01T06:40:50.770Z,20.90
2018-07-01T06:43:19.086Z,20.70
2018-07-01T06:45:47.437Z,20.50
2018-07-01T06:48:15.740Z,20.10
2018-07-01T06:50:44.076Z,19.80
2018-07-01T06:53:12.357Z,19.90
2018-07-01T06:55:40.666Z,19.90
2018-07-01T06:58:08.960Z,19.80
2018-07-01T07:00:37.277Z,19.80
2018-07-01T07:03:05.636Z,19.70
2018-07-01T07:05:33.961Z,19.60
2018-07-01T07:08:02.308Z,19.70
2018-07-01T07:10:30.593Z,19.80
2018-07-01T07:12:58.898Z,20.00
2018-07-01T07:15:27.220Z,20.00
2018-07-01T07:17:55.516Z,20.20
2018-07-01T07:20:23.857Z,20.20
2018-07-01T07:22:52.148Z,20.30
2018-07-01T07:25:20.438Z,20.20
2018-07-01T07:27:48.758Z,20.10
2018-07-01T07:30:17.048Z,20.10
2018-07-01T07:32:45.372Z,20.20
2018-07-01T07:35:13.704Z,20.30
2018-07-01T07:37:42.033Z,20.20
2018-07-01T07:40:10.370Z,20.50
2018-07-01T07:42:38.684Z,20.70
2018-07-01T07:45:07.096Z,20.90
2018-07-01T07:47:35.404Z,21.30
2018-07-01T07:50:03.837Z,21.70
2018-07-01T07:52:32.165Z,22.00
2018-07-01T07:55:00.522Z,22.20
2018-07-01T07:57:28.836Z,22.20
2018-07-01T07:59:57.149Z,22.70
2018-07-01T08:02:25.481Z,22.50
2018-07-01T08:04:53.800Z,22.50
2018-07-01T08:07:22.160Z,22.40
2018-07-01T08:09:50.442Z,22.20
2018-07-01T08:12:18.789Z,21.70
2018-07-01T08:14:47.136Z,21.40
2018-07-01T08:17:15.457Z,21.80
2018-07-01T08:19:43.756Z,22.10
2018-07-01T08:22:12.086Z,22.20
2018-07-01T08:24:40.393Z,22.10
2018-07-01T08:27:08.717Z,22.40
2018-07-01T08:29:37.020Z,23.20
2018-07-01T08:32:05.390Z,23.20
2018-07-01T08:34:33.685Z,23.80
2018-07-01T08:37:03.046Z,24.00
2018-07-01T08:39:31.346Z,24.10
2018-07-01T08:42:31.585Z,24.70
2018-07-01T08:45:00.972Z,25.10
2018-07-01T08:47:29.673Z,25.60
2018-07-01T08:49:58.015Z,25.90
2018-07-01T08:52:26.502Z,26.30
2018-07-01T08:54:54.782Z,26.90
2018-07-01T08:57:23.720Z,26.90
2018-07-01T08:59:52.037Z,26.30
2018-07-01T09:02:21.073Z,26.40
2018-07-01T09:04:49.388Z,26.60
2018-07-01T09:07:18.340Z,26.40
2018-07-01T09:09:47.008Z,26.20
2018-07-01T09:12:15.361Z,26.10
2018-07-01T09:14:43.685Z,25.80
2018-07-01T09:17:12.113Z,25.80
2018-07-01T09:19:40.385Z,25.10
2018-07-01T09:22:08.717Z,25.00
2018-07-01T09:24:37.023Z,24.90
2018-07-01T09:27:05.377Z,25.10
2018-07-01T09:29:33.719Z,25.00
2018-07-01T09:32:02.838Z,24.90
2018-07-01T09:34:31.216Z,24.70
2018-07-01T09:36:59.509Z,24.70
2018-07-01T09:39:27.819Z,24.60
2018-07-01T09:41:56.465Z,24.60
2018-07-01T09:44:24.871Z,24.60
2018-07-01T09:46:53.171Z,24.50
2018-07-01T09:49:21.504Z,24.50
2018-07-01T09:51:49.803Z,24.70
2018-07-01T09:54:18.125Z,24.70
2018-07-01T09:56:46.444Z,24.80
2018-07-01T09:59:14.768Z,24.40
2018-07-01T10:01:43.076Z,24.40
2018-07-01T10:04:11.412Z,24.50
2018-07-01T10:06:39.833Z,24.60
2018-07-01T10:09:10.064Z,25.10
2018-07-01T10:11:38.546Z,25.70
2018-07-01T10:14:07.720Z,26.20
2018-07-01T10:16:36.037Z,26.20
2018-07-01T10:19:04.730Z,26.30
2018-07-01T10:21:33.014Z,26.20
2018-07-01T10:24:01.351Z,26.50
2018-07-01T10:26:29.704Z,26.50
2018-07-01T10:29:09.153Z,26.70
2018-07-01T10:31:38.021Z,26.70
2018-07-01T10:34:07.240Z,27.70
2018-07-01T10:36:35.558Z,26.90
2018-07-01T10:39:06.551Z,27.40
2018-07-01T10:41:34.860Z,27.60
2018-07-01T10:44:03.181Z,28.10
2018-07-01T10:46:31.473Z,28.70
2018-07-01T10:48:59.816Z,28.90
2018-07-01T10:51:28.197Z,29.20
2018-07-01T10:53:56.473Z,29.10
2018-07-01T10:56:24.768Z,29.10
2018-07-01T10:58:53.121Z,29.50
2018-07-01T11:01:21.433Z,29.30
2018-07-01T11:03:49.761Z,29.50
2018-07-01T11:06:18.227Z,29.50
2018-07-01T11:08:46.437Z,29.70
2018-07-01T11:11:14.793Z,28.40
2018-07-01T11:13:43.165Z,28.70
2018-07-01T11:16:11.466Z,28.90
2018-07-01T11:18:39.784Z,29.50
2018-07-01T11:21:08.113Z,29.90
2018-07-01T11:23:36.473Z,29.60
2018-07-01T11:26:06.005Z,29.60
2018-07-01T11:28:34.305Z,29.60
2018-07-01T11:31:02.717Z,30.20
2018-07-01T11:33:31.025Z,30.30
2018-07-01T11:35:59.361Z,30.30
2018-07-01T11:38:27.657Z,30.40
2018-07-01T11:40:55.980Z,30.40
2018-07-01T11:43:24.287Z,30.20
2018-07-01T11:45:52.603Z,30.10
2018-07-01T11:48:20.911Z,29.70
2018-07-01T11:50:49.228Z,29.70
2018-07-01T11:53:17.525Z,29.50
2018-07-01T11:55:45.847Z,30.10
2018-07-01T11:58:14.149Z,30.40
2018-07-01T12:00:42.477Z,30.70
2018-07-01T12:03:10.797Z,30.50
2018-07-01T12:05:39.156Z,30.50
2018-07-01T12:08:07.471Z,30.30
2018-07-01T12:10:35.785Z,30.20
2018-07-01T12:13:04.087Z,30.40
2018-07-01T12:15:32.557Z,30.70
2018-07-01T12:18:00.857Z,30.90
2018-07-01T12:20:29.189Z,30.70
2018-07-01T12:22:57.487Z,30.80
2018-07-01T12:25:25.806Z,30.70
2018-07-01T12:27:54.157Z,30.90
2018-07-01T12:30:22.473Z,31.40
2018-07-01T12:32:50.774Z,30.90
2018-07-01T12:35:19.137Z,30.50
2018-07-01T12:37:47.477Z,30.90
2018-07-01T12:40:15.855Z,31.10
2018-07-01T12:42:44.164Z,30.60
2018-07-01T12:45:12.464Z,30.60
2018-07-01T12:47:40.850Z,30.50
2018-07-01T12:50:09.168Z,30.10
2018-07-01T12:52:37.478Z,29.70
2018-07-01T12:55:05.812Z,30.30
2018-07-01T12:57:34.128Z,30.20
2018-07-01T13:00:02.534Z,30.20
2018-07-01T13:02:30.889Z,29.50
2018-07-01T13:04:59.821Z,29.50
2018-07-01T13:07:28.121Z,29.90
2018-07-01T13:09:56.437Z,29.90
2018-07-01T13:12:24.766Z,29.50
2018-07-01T13:14:53.074Z,29.60
2018-07-01T13:17:21.405Z,29.10
2018-07-01T13:19:49.702Z,29.50
2018-07-01T13:22:18.037Z,29.30
2018-07-01T13:24:46.352Z,27.50
2018-07-01T13:27:14.693Z,27.70
2018-07-01T13:29:43.017Z,27.30
2018-07-01T13:32:11.345Z,27.20
2018-07-01T13:34:39.665Z,27.50
2018-07-01T13:37:08.013Z,27.90
2018-07-01T13:39:36.328Z,28.10
2018-07-01T13:42:04.681Z,27.80
2018-07-01T13:44:33.036Z,28.00
2018-07-01T13:47:01.369Z,27.40
2018-07-01T13:49:29.691Z,26.90
2018-07-01T13:51:58.041Z,27.00
2018-07-01T13:54:26.358Z,26.90
2018-07-01T13:56:54.786Z,26.90
2018-07-01T13:59:23.029Z,27.10
2018-07-01T14:01:51.357Z,27.10
2018-07-01T14:04:19.661Z,27.20
2018-07-01T14:06:48.022Z,27.00
2018-07-01T14:09:16.309Z,26.90
2018-07-01T14:11:44.633Z,27.10
2018-07-01T14:14:12.977Z,27.20
2018-07-01T14:16:41.272Z,26.80
2018-07-01T14:19:09.690Z,26.60
2018-07-01T14:21:38.011Z,26.70
2018-07-01T14:24:06.318Z,26.80
2018-07-01T14:26:34.712Z,26.60
2018-07-01T14:29:03.039Z,26.70
2018-07-01T14:31:31.377Z,26.70
2018-07-01T14:33:59.664Z,26.40
2018-07-01T14:36:27.992Z,26.80
2018-07-01T14:38:56.309Z,26.70
2018-07-01T14:43:52.917Z,26.30
2018-07-01T14:46:21.253Z,26.20
2018-07-01T14:48:49.558Z,26.30
2018-07-01T14:51:17.897Z,26.30
2018-07-01T14:53:46.205Z,26.30
2018-07-01T14:56:14.538Z,26.10
2018-07-01T14:58:42.856Z,26.00
2018-07-01T15:01:11.246Z,26.20
2018-07-01T15:03:39.598Z,26.40
2018-07-01T15:06:09.964Z,26.20
2018-07-01T15:08:38.865Z,26.10
2018-07-01T15:11:07.444Z,26.10
2018-07-01T15:13:35.818Z,25.90
2018-07-01T15:16:04.161Z,25.80
2018-07-01T15:18:32.478Z,25.60
2018-07-01T15:21:00.808Z,25.80
2018-07-01T15:23:29.145Z,26.00
2018-07-01T15:25:57.477Z,25.90
2018-07-01T15:28:26.813Z,25.90
2018-07-01T15:30:55.381Z,25.90
2018-07-01T15:33:24.081Z,25.90
2018-07-01T15:35:53.161Z,25.90
2018-07-01T15:38:21.513Z,25.80
2018-07-01T15:40:49.859Z,25.80
2018-07-01T15:43:18.176Z,25.70
2018-07-01T15:45:46.493Z,25.70
2018-07-01T15:48:14.816Z,25.70
2018-07-01T15:50:43.145Z,25.70
2018-07-01T15:53:11.457Z,25.50
2018-07-01T15:55:39.778Z,25.40
2018-07-01T15:58:08.121Z,25.40
2018-07-01T16:00:36.429Z,25.20
2018-07-01T16:03:04.820Z,25.20
2018-07-01T16:05:33.133Z,25.40
2018-07-01T16:08:01.449Z,25.50
2018-07-01T16:10:29.793Z,25.50
2018-07-01T16:12:58.122Z,25.50
2018-07-01T16:15:26.475Z,25.40
2018-07-01T16:17:54.858Z,25.40
2018-07-01T16:20:23.104Z,25.30
2018-07-01T16:22:51.458Z,25.20
2018-07-01T16:25:25.077Z,25.30
2018-07-01T16:27:58.709Z,25.40
2018-07-01T16:30:27.009Z,25.30
2018-07-01T16:32:55.369Z,25.30
2018-07-01T16:35:23.694Z,25.40
2018-07-01T16:37:52.053Z,25.20
2018-07-01T16:40:20.379Z,25.20
2018-07-01T16:42:48.716Z,25.30
2018-07-01T16:45:17.062Z,25.30
2018-07-01T16:47:45.386Z,25.30
2018-07-01T16:50:13.685Z,25.30
2018-07-01T16:52:42.005Z,25.20
2018-07-01T16:55:10.307Z,25.10
2018-07-01T16:57:38.681Z,25.10
2018-07-01T17:00:07.792Z,25.10
2018-07-01T17:02:36.079Z,25.20
2018-07-01T17:05:04.477Z,25.20
2018-07-01T17:07:32.781Z,25.00
2018-07-01T17:10:01.104Z,25.00
2018-07-01T17:14:57.620Z,24.90
2018-07-01T17:17:26.039Z,24.90
2018-07-01T17:19:54.371Z,25.00
2018-07-01T17:22:22.667Z,24.90
2018-07-01T17:24:50.977Z,24.70
2018-07-01T17:27:19.289Z,24.70
2018-07-01T17:29:47.622Z,24.80
2018-07-01T17:32:21.317Z,24.80
2018-07-01T17:34:49.649Z,24.80
2018-07-01T17:37:17.973Z,24.80
2018-07-01T17:39:46.287Z,24.80
2018-07-01T17:42:14.617Z,24.80
2018-07-01T17:44:43.001Z,24.80
2018-07-01T17:47:11.318Z,24.70
2018-07-01T17:49:39.693Z,24.60
2018-07-01T17:52:08.025Z,24.70
2018-07-01T17:54:36.335Z,24.60
2018-07-01T17:57:04.657Z,24.60
2018-07-01T17:59:32.978Z,24.60
2018-07-01T18:02:01.276Z,24.50
2018-07-01T18:04:29.596Z,24.40
2018-07-01T18:06:57.889Z,24.20
2018-07-01T18:09:26.260Z,24.20
2018-07-01T18:11:54.553Z,24.00
2018-07-01T18:14:22.878Z,23.80
2018-07-01T18:16:51.169Z,24.00
2018-07-01T18:19:19.501Z,24.00
2018-07-01T18:22:04.612Z,23.90
2018-07-01T18:24:42.860Z,23.70
2018-07-01T18:26:44.472Z,23.50
2018-07-01T18:29:16.773Z,23.50
2018-07-01T18:31:41.215Z,23.50
2018-07-01T18:34:09.638Z,23.50
2018-07-01T18:36:38.004Z,23.40
2018-07-01T18:39:07.792Z,23.30
2018-07-01T18:41:36.204Z,23.30
2018-07-01T18:44:04.513Z,23.20
2018-07-01T18:46:32.849Z,23.00
2018-07-01T18:49:01.161Z,23.00
2018-07-01T18:51:29.476Z,22.80
2018-07-01T18:53:57.785Z,22.90
2018-07-01T18:56:26.112Z,22.80
2018-07-01T18:58:54.507Z,22.70
2018-07-01T19:01:22.825Z,22.60
2018-07-01T19:03:51.202Z,22.60
2018-07-01T19:06:19.542Z,22.60
2018-07-01T19:08:47.884Z,22.40
2018-07-01T19:11:16.185Z,22.30
2018-07-01T19:13:44.516Z,22.20
2018-07-01T19:16:12.857Z,22.10
2018-07-01T19:18:41.168Z,21.90
2018-07-01T19:21:09.856Z,21.70
2018-07-01T19:23:38.917Z,21.70
2018-07-01T19:26:07.709Z,21.40
2018-07-01T19:28:36.061Z,21.40
2018-07-01T19:31:05.197Z,21.40
2018-07-01T19:33:33.560Z,21.30
2018-07-01T19:36:01.930Z,21.20
2018-07-01T19:38:30.244Z,21.10
2018-07-01T19:40:58.577Z,21.00
2018-07-01T19:43:27.037Z,21.00
2018-07-01T19:45:55.252Z,21.00
2018-07-01T19:48:23.574Z,21.10
2018-07-01T19:50:51.897Z,20.90
2018-07-01T19:53:20.191Z,20.80
2018-07-01T19:55:48.509Z,20.60
2018-07-01T19:58:16.841Z,20.60
2018-07-01T20:00:45.168Z,20.50
2018-07-01T20:03:13.457Z,20.40
2018-07-01T20:05:41.773Z,20.40
2018-07-01T20:08:10.114Z,20.30
2018-07-01T20:10:38.424Z,20.30
2018-07-01T20:13:06.770Z,20.30
2018-07-01T20:15:35.093Z,20.30
2018-07-01T20:18:03.413Z,20.10
2018-07-01T20:20:31.748Z,20.00
2018-07-01T20:23:00.038Z,20.00
2018-07-01T20:25:28.377Z,20.10
2018-07-01T20:27:56.686Z,20.00
2018-07-01T20:32:53.097Z,19.90
2018-07-01T20:35:21.420Z,19.80
2018-07-01T20:37:49.749Z,19.70
2018-07-01T20:40:18.063Z,19.50
2018-07-01T20:42:46.373Z,19.40
2018-07-01T20:45:14.680Z,19.40
2018-07-01T20:47:43.006Z,19.30
2018-07-01T20:50:11.325Z,19.20
2018-07-01T20:52:39.652Z,19.20
2018-07-01T20:55:07.958Z,19.20
2018-07-01T20:57:36.276Z,19.20
2018-07-01T21:00:05.290Z,19.10
2018-07-01T21:02:33.613Z,19.20
2018-07-01T21:05:01.905Z,19.20
2018-07-01T21:07:30.265Z,19.10
2018-07-01T21:09:58.565Z,19.00
2018-07-01T21:12:26.899Z,19.00
2018-07-01T21:17:23.275Z,18.80
2018-07-01T21:19:51.592Z,19.00
2018-07-01T21:22:19.907Z,19.00
2018-07-01T21:24:48.277Z,19.00
2018-07-01T21:27:16.894Z,18.90
2018-07-01T21:29:45.184Z,18.90
2018-07-01T21:32:13.532Z,18.90
2018-07-01T21:34:42.911Z,18.70
2018-07-01T21:37:11.310Z,18.70
2018-07-01T21:39:39.634Z,18.70
2018-07-01T21:42:07.977Z,18.70
2018-07-01T21:44:36.291Z,18.50
2018-07-01T21:47:04.792Z,18.50
2018-07-01T21:49:33.201Z,18.50
2018-07-01T21:52:01.560Z,18.40
2018-07-01T21:54:29.869Z,18.40
2018-07-01T21:56:58.210Z,18.30
2018-07-01T21:59:26.744Z,18.30
2018-07-01T22:01:55.379Z,18.20
2018-07-01T22:04:23.702Z,18.10
2018-07-01T22:06:57.549Z,18.10
2018-07-01T22:09:26.016Z,18.30
2018-07-01T22:12:05.840Z,18.20
2018-07-01T22:14:44.146Z,18.30
2018-07-01T22:17:13.357Z,18.20
2018-07-01T22:19:41.693Z,18.10
2018-07-01T22:22:10.075Z,18.00
2018-07-01T22:24:39.202Z,18.00
2018-07-01T22:27:07.593Z,17.90
2018-07-01T22:32:03.999Z,17.80
2018-07-01T22:34:32.318Z,17.90
2018-07-01T22:37:00.699Z,17.90
2018-07-01T22:39:30.892Z,17.70
2018-07-01T22:42:00.380Z,17.70
2018-07-01T22:44:29.176Z,17.70
2018-07-01T22:46:57.524Z,17.60
2018-07-01T22:49:25.885Z,17.70
2018-07-01T22:51:54.224Z,17.70
2018-07-01T22:54:22.551Z,17.80
2018-07-01T22:56:50.880Z,17.80
2018-07-01T22:59:19.236Z,17.80
2018-07-01T23:02:58.709Z,17.90
2018-07-01T23:05:27.021Z,17.90
2018-07-01T23:07:55.384Z,17.80
2018-07-01T23:10:24.840Z,17.70
2018-07-01T23:12:53.988Z,17.70
2018-07-01T23:15:22.364Z,17.70
2018-07-01T23:17:50.677Z,17.80
2018-07-01T23:20:19.201Z,17.70
2018-07-01T23:22:47.528Z,17.70
2018-07-01T23:25:15.973Z,17.70
2018-07-01T23:27:45.042Z,17.70
2018-07-01T23:30:13.437Z,17.70
2018-07-01T23:35:10.248Z,17.60
2018-07-01T23:37:39.161Z,17.50
2018-07-01T23:40:08.069Z,17.40
2018-07-01T23:42:36.645Z,17.50
2018-07-01T23:45:07.112Z,17.50
2018-07-01T23:47:35.436Z,17.40
2018-07-01T23:50:04.460Z,17.40
2018-07-01T23:52:32.768Z,17.40
2018-07-01T23:55:01.161Z,17.40
2018-07-01T23:57:29.484Z,17.20
2018-07-01T23:59:57.836Z,17.20
